createdAt,value
2022-10-14T00:00:06.044Z,30.53
2022-10-14T00:02:42.606Z,28.43
2022-10-14T00:05:12.138Z,28.00
2022-10-14T00:07:41.237Z,29.23
2022-10-14T00:10:10.596Z,32.33
2022-10-14T00:12:39.785Z,24.10
2022-10-14T00:15:10.026Z,24.03
2022-10-14T00:17:40.584Z,28.77
2022-10-14T00:20:10.898Z,28.43
2022-10-14T00:22:39.673Z,37.60
2022-10-14T00:25:09.298Z,34.27
2022-10-14T00:27:39.070Z,25.53
2022-10-14T00:30:14.342Z,26.27
2022-10-14T00:32:44.689Z,29.80
2022-10-14T00:35:13.554Z,27.90
2022-10-14T00:37:42.372Z,28.20
2022-10-14T00:40:13.152Z,30.37
2022-10-14T00:42:42.032Z,32.00
2022-10-14T00:45:17.231Z,28.03
2022-10-14T00:47:49.101Z,28.30
2022-10-14T00:50:19.944Z,29.63
2022-10-14T00:52:49.467Z,27.00
2022-10-14T00:55:20.742Z,25.37
2022-10-14T00:57:49.645Z,24.50
2022-10-14T01:00:21.035Z,24.20
2022-10-14T01:02:51.494Z,26.03
2022-10-14T01:05:21.933Z,29.60
2022-10-14T01:08:07.022Z,23.87
2022-10-14T01:10:48.232Z,28.00
2022-10-14T01:13:28.253Z,29.10
2022-10-14T01:16:16.665Z,33.03
2022-10-14T01:19:11.359Z,22.57
2022-10-14T01:21:49.845Z,28.40
2022-10-14T01:24:44.587Z,23.83
2022-10-14T01:28:00.597Z,23.43
2022-10-14T01:30:34.209Z,28.97
2022-10-14T01:33:14.433Z,26.57
2022-10-14T01:36:02.866Z,24.03
2022-10-14T01:38:37.365Z,23.13
2022-10-14T01:41:18.696Z,21.27
2022-10-14T01:43:51.828Z,25.13
2022-10-14T01:46:27.211Z,25.20
2022-10-14T01:49:03.280Z,25.77
2022-10-14T01:51:39.604Z,28.47
2022-10-14T01:54:16.430Z,28.37
2022-10-14T01:56:49.551Z,34.03
2022-10-14T01:59:23.778Z,25.20
2022-10-14T02:01:53.968Z,31.03
2022-10-14T02:04:24.749Z,29.70
2022-10-14T02:07:06.196Z,27.57
2022-10-14T02:09:50.079Z,29.23
2022-10-14T02:12:39.143Z,27.52
2022-10-14T02:15:21.029Z,30.50
2022-10-14T02:18:01.950Z,31.13
2022-10-14T02:20:37.719Z,34.03
2022-10-14T02:23:17.123Z,30.30
2022-10-14T02:25:49.332Z,26.10
2022-10-14T02:28:22.105Z,25.27
2022-10-14T02:30:59.072Z,25.23
2022-10-14T02:33:38.901Z,30.67
2022-10-14T02:36:13.102Z,26.52
2022-10-14T02:38:44.479Z,26.83
2022-10-14T02:41:19.723Z,29.48
2022-10-14T02:43:49.071Z,25.27
2022-10-14T02:46:25.553Z,27.83
2022-10-14T02:48:56.029Z,24.33
2022-10-14T02:51:24.926Z,31.23
2022-10-14T02:53:53.751Z,25.50
2022-10-14T02:56:22.425Z,26.27
2022-10-14T02:58:51.245Z,27.13
2022-10-14T03:01:19.988Z,31.83
2022-10-14T03:03:49.055Z,23.80
2022-10-14T03:06:21.712Z,27.47
2022-10-14T03:08:51.153Z,27.90
2022-10-14T03:11:20.684Z,27.03
2022-10-14T03:13:49.460Z,22.17
2022-10-14T03:16:18.387Z,27.60
2022-10-14T03:18:47.520Z,40.23
2022-10-14T03:21:25.616Z,23.27
2022-10-14T03:23:55.502Z,23.77
2022-10-14T03:26:33.398Z,25.20
2022-10-14T03:29:02.299Z,27.17
2022-10-14T03:31:49.710Z,24.10
2022-10-14T03:34:34.326Z,22.37
2022-10-14T03:37:14.650Z,23.40
2022-10-14T03:39:49.478Z,22.73
2022-10-14T03:42:19.506Z,21.30
2022-10-14T03:44:50.317Z,24.73
2022-10-14T03:47:29.068Z,23.90
2022-10-14T03:49:57.944Z,23.00
2022-10-14T03:52:37.138Z,19.50
2022-10-14T03:55:16.325Z,21.50
2022-10-14T03:57:47.104Z,23.80
2022-10-14T04:00:17.460Z,26.00
2022-10-14T04:02:51.524Z,22.50
2022-10-14T04:05:37.267Z,23.27
2022-10-14T04:08:18.801Z,21.93
2022-10-14T04:11:10.755Z,21.15
2022-10-14T04:13:41.951Z,26.53
2022-10-14T04:16:13.364Z,22.50
2022-10-14T04:19:00.858Z,31.63
2022-10-14T04:21:29.616Z,27.30
2022-10-14T04:24:04.825Z,24.65
2022-10-14T04:26:44.798Z,23.25
2022-10-14T04:29:19.413Z,23.77
2022-10-14T04:31:56.538Z,26.93
2022-10-14T04:34:25.557Z,28.13
2022-10-14T04:36:55.592Z,24.27
2022-10-14T04:39:44.364Z,27.80
2022-10-14T04:42:14.233Z,31.02
2022-10-14T04:44:45.896Z,27.90
2022-10-14T04:47:16.098Z,28.55
2022-10-14T04:49:49.738Z,27.70
2022-10-14T04:52:22.307Z,25.08
2022-10-14T04:55:00.997Z,23.30
2022-10-14T04:57:36.720Z,27.10
2022-10-14T05:00:06.663Z,31.52
2022-10-14T05:03:01.423Z,25.87
2022-10-14T05:05:35.440Z,26.53
2022-10-14T05:08:08.064Z,29.20
2022-10-14T05:10:41.797Z,24.50
2022-10-14T05:13:17.259Z,35.93
2022-10-14T05:15:56.715Z,22.93
2022-10-14T05:18:26.011Z,26.47
2022-10-14T05:21:01.850Z,26.07
2022-10-14T05:23:49.403Z,35.67
2022-10-14T05:26:19.873Z,23.80
2022-10-14T05:28:50.220Z,26.33
2022-10-14T05:31:20.238Z,26.60
2022-10-14T05:34:00.315Z,19.63
2022-10-14T05:36:29.216Z,25.43
2022-10-14T05:38:58.995Z,29.77
2022-10-14T05:41:34.003Z,24.57
2022-10-14T05:44:03.854Z,26.07
2022-10-14T05:46:32.774Z,25.30
2022-10-14T05:49:05.972Z,26.00
2022-10-14T05:51:37.457Z,22.97
2022-10-14T05:54:13.325Z,22.33
2022-10-14T05:56:45.847Z,20.93
2022-10-14T05:59:15.762Z,24.57
2022-10-14T06:01:44.636Z,27.67
2022-10-14T06:04:20.081Z,23.63
2022-10-14T06:06:48.959Z,24.83
2022-10-14T06:09:18.403Z,22.43
2022-10-14T06:11:48.558Z,24.53
2022-10-14T06:14:17.341Z,21.87
2022-10-14T06:16:51.031Z,25.33
2022-10-14T06:19:20.044Z,22.10
2022-10-14T06:21:48.787Z,29.60
2022-10-14T06:24:17.809Z,21.33
2022-10-14T06:26:48.549Z,30.50
2022-10-14T06:29:18.265Z,23.83
2022-10-14T06:31:46.976Z,21.90
2022-10-14T06:34:15.748Z,19.77
2022-10-14T06:36:44.518Z,29.67
2022-10-14T06:39:13.275Z,19.83
2022-10-14T06:41:41.956Z,25.10
2022-10-14T06:44:21.870Z,23.80
2022-10-14T06:46:50.706Z,24.80
2022-10-14T06:49:19.731Z,20.70
2022-10-14T06:51:48.460Z,22.17
2022-10-14T06:54:18.498Z,27.63
2022-10-14T06:56:47.200Z,25.77
2022-10-14T06:59:16.010Z,27.97
2022-10-14T07:01:46.194Z,24.93
2022-10-14T07:04:15.079Z,29.10
2022-10-14T07:06:44.024Z,23.17
2022-10-14T07:09:12.744Z,30.07
2022-10-14T07:11:42.859Z,22.50
2022-10-14T07:14:11.988Z,20.47
2022-10-14T07:16:40.713Z,25.53
2022-10-14T07:19:10.899Z,25.93
2022-10-14T07:21:39.739Z,22.57
2022-10-14T07:24:09.765Z,26.73
2022-10-14T07:26:38.558Z,21.37
2022-10-14T07:29:08.138Z,18.13
2022-10-14T07:31:37.228Z,21.73
2022-10-14T07:34:05.978Z,25.97
2022-10-14T07:36:36.245Z,21.40
2022-10-14T07:39:05.903Z,28.30
2022-10-14T07:41:35.048Z,26.00
2022-10-14T07:44:09.509Z,27.07
2022-10-14T07:46:41.895Z,19.07
2022-10-14T07:49:14.400Z,22.57
2022-10-14T07:51:45.831Z,25.43
2022-10-14T07:54:18.223Z,24.90
2022-10-14T07:56:49.349Z,23.47
2022-10-14T07:59:19.271Z,18.50
2022-10-14T08:01:49.203Z,23.87
2022-10-14T08:04:18.551Z,22.20
2022-10-14T08:06:50.704Z,22.10
2022-10-14T08:09:20.726Z,26.70
2022-10-14T08:11:50.184Z,18.80
2022-10-14T08:14:18.986Z,21.03
2022-10-14T08:16:48.181Z,27.47
2022-10-14T08:19:17.142Z,20.73
2022-10-14T08:21:45.986Z,25.77
2022-10-14T08:24:16.142Z,23.87
2022-10-14T08:26:55.190Z,27.23
2022-10-14T08:29:24.702Z,23.03
2022-10-14T08:31:55.335Z,21.23
2022-10-14T08:34:24.619Z,21.67
2022-10-14T08:36:53.659Z,27.67
2022-10-14T08:39:23.921Z,22.27
2022-10-14T08:42:23.727Z,25.23
2022-10-14T08:45:08.174Z,23.77
2022-10-14T08:47:42.306Z,20.10
2022-10-14T08:50:26.874Z,26.37
2022-10-14T08:53:04.114Z,27.30
2022-10-14T08:55:44.472Z,29.43
2022-10-14T08:58:22.868Z,22.70
2022-10-14T09:00:54.429Z,24.30
2022-10-14T09:03:26.926Z,22.17
2022-10-14T09:06:02.464Z,23.27
2022-10-14T09:08:39.563Z,18.33
2022-10-14T09:11:16.115Z,33.60
2022-10-14T09:13:49.572Z,17.33
2022-10-14T09:16:23.722Z,19.70
2022-10-14T09:18:56.954Z,23.43
2022-10-14T09:21:51.662Z,19.93
2022-10-14T09:24:24.811Z,22.00
2022-10-14T09:26:59.595Z,21.70
2022-10-14T09:29:31.709Z,28.60
2022-10-14T09:32:05.356Z,20.17
2022-10-14T09:34:39.983Z,20.97
2022-10-14T09:37:28.048Z,17.63
2022-10-14T09:40:02.218Z,26.10
2022-10-14T09:42:49.603Z,17.33
2022-10-14T09:45:22.815Z,26.63
2022-10-14T09:47:57.005Z,20.80
2022-10-14T09:50:32.594Z,17.50
2022-10-14T09:53:10.739Z,19.00
2022-10-14T09:55:49.366Z,17.67
2022-10-14T09:58:28.144Z,16.83
2022-10-14T10:01:00.932Z,18.17
2022-10-14T10:03:33.832Z,18.63
2022-10-14T10:06:07.803Z,17.93
2022-10-14T10:08:40.359Z,21.83
2022-10-14T10:11:14.067Z,19.93
2022-10-14T10:13:46.986Z,19.10
2022-10-14T10:16:26.266Z,15.37
2022-10-14T10:18:57.502Z,15.60
2022-10-14T10:21:30.174Z,19.00
2022-10-14T10:24:01.171Z,16.03
2022-10-14T10:26:33.610Z,18.73
2022-10-14T10:29:06.799Z,18.20
2022-10-14T10:31:58.282Z,20.37
2022-10-14T10:35:12.204Z,22.40
2022-10-14T10:37:54.973Z,22.17
2022-10-14T10:40:36.119Z,22.97
2022-10-14T10:43:39.349Z,19.20
2022-10-14T10:46:52.752Z,29.27
2022-10-14T10:49:52.107Z,18.47
2022-10-14T10:52:36.346Z,18.10
2022-10-14T10:55:19.447Z,20.80
2022-10-14T10:58:07.476Z,19.07
2022-10-14T11:00:49.791Z,16.03
2022-10-14T11:03:55.138Z,19.03
2022-10-14T11:06:49.491Z,18.33
2022-10-14T11:09:53.137Z,18.77
2022-10-14T11:12:33.077Z,17.37
2022-10-14T11:15:25.265Z,19.17
2022-10-14T11:18:03.758Z,16.17
2022-10-14T11:20:49.091Z,14.50
2022-10-14T11:23:57.243Z,13.30
2022-10-14T11:26:49.289Z,15.80
2022-10-14T11:29:46.368Z,16.90
2022-10-14T11:32:24.767Z,17.27
2022-10-14T11:35:13.638Z,19.03
2022-10-14T11:38:00.096Z,17.60
2022-10-14T11:40:39.324Z,17.73
2022-10-14T11:43:26.669Z,15.40
2022-10-14T11:46:02.003Z,16.43
2022-10-14T11:48:40.995Z,17.27
2022-10-14T11:51:20.352Z,17.40
2022-10-14T11:54:05.162Z,14.50
2022-10-14T11:56:43.785Z,24.60
2022-10-14T11:59:41.348Z,16.17
2022-10-14T12:02:39.375Z,17.03
2022-10-14T12:05:21.209Z,19.90
2022-10-14T12:08:07.361Z,15.33
2022-10-14T12:10:45.634Z,19.17
2022-10-14T12:13:21.768Z,14.73
2022-10-14T12:15:54.459Z,18.03
2022-10-14T12:18:24.054Z,20.30
2022-10-14T12:21:00.513Z,16.73
2022-10-14T12:23:38.285Z,20.57
2022-10-14T12:26:18.153Z,25.10
2022-10-14T12:28:48.448Z,19.70
2022-10-14T12:31:38.290Z,20.73
2022-10-14T12:34:33.182Z,18.20
2022-10-14T12:37:52.830Z,26.00
2022-10-14T12:40:31.308Z,14.47
2022-10-14T12:43:26.295Z,13.93
2022-10-14T12:46:14.485Z,16.90
2022-10-14T12:48:54.844Z,13.00
2022-10-14T12:51:27.457Z,13.30
2022-10-14T12:54:08.209Z,18.57
2022-10-14T12:56:44.321Z,11.50
2022-10-14T12:59:28.172Z,14.77
2022-10-14T13:02:00.531Z,14.93
2022-10-14T13:04:30.177Z,17.80
2022-10-14T13:07:41.590Z,12.03
2022-10-14T13:10:48.384Z,12.47
2022-10-14T13:13:52.899Z,14.13
2022-10-14T13:17:03.183Z,11.60
2022-10-14T13:19:46.830Z,12.23
2022-10-14T13:22:40.860Z,13.60
2022-10-14T13:25:22.814Z,13.13
2022-10-14T13:28:14.699Z,11.90
2022-10-14T13:31:00.244Z,12.10
2022-10-14T13:33:41.892Z,15.50
2022-10-14T13:36:20.807Z,8.90
2022-10-14T13:38:59.185Z,15.20
2022-10-14T13:41:31.444Z,14.43
2022-10-14T13:44:02.444Z,13.50
2022-10-14T13:46:40.802Z,13.63
2022-10-14T13:49:23.294Z,12.63
2022-10-14T13:51:56.629Z,10.47
2022-10-14T13:54:27.896Z,10.07
2022-10-14T14:02:47.225Z,11.03
2022-10-14T14:05:26.808Z,10.03
2022-10-14T14:08:31.731Z,16.53
2022-10-14T14:11:15.653Z,10.43
2022-10-14T14:13:59.203Z,12.23
2022-10-14T14:16:35.195Z,8.87
2022-10-14T14:19:10.047Z,10.47
2022-10-14T14:21:40.854Z,8.93
2022-10-14T14:24:19.872Z,11.23
2022-10-14T14:26:57.371Z,12.90
2022-10-14T14:29:29.565Z,9.77
2022-10-14T14:32:07.825Z,8.63
2022-10-14T14:34:40.228Z,10.10
2022-10-14T14:40:21.852Z,8.93
2022-10-14T14:42:55.184Z,9.30
2022-10-14T14:45:29.300Z,9.23
2022-10-14T14:48:04.032Z,14.00
2022-10-14T14:50:37.803Z,7.27
2022-10-14T14:53:15.412Z,9.43
2022-10-14T14:56:01.055Z,11.23
2022-10-14T14:58:36.026Z,7.90
2022-10-14T15:01:08.624Z,8.63
2022-10-14T15:04:12.074Z,10.00
2022-10-14T15:06:51.130Z,10.33
2022-10-14T15:09:37.248Z,10.80
2022-10-14T15:12:17.290Z,10.73
2022-10-14T15:14:49.193Z,15.60
2022-10-14T15:17:32.356Z,10.10
2022-10-14T15:20:29.811Z,11.93
2022-10-14T15:22:58.702Z,7.87
2022-10-14T15:25:33.427Z,9.73
2022-10-14T15:28:03.898Z,10.20
2022-10-14T15:30:55.753Z,10.90
2022-10-14T15:33:27.302Z,10.10
2022-10-14T15:36:00.172Z,9.63
2022-10-14T15:41:05.168Z,10.47
2022-10-14T15:43:35.047Z,8.37
2022-10-14T15:46:21.477Z,9.90
2022-10-14T15:48:53.433Z,8.50
2022-10-14T15:51:24.697Z,8.57
2022-10-14T15:53:53.522Z,9.50
2022-10-14T15:56:23.944Z,13.00
2022-10-14T15:58:52.744Z,11.70
2022-10-14T16:01:23.931Z,11.97
2022-10-14T16:03:53.396Z,8.97
2022-10-14T16:06:24.619Z,7.87
2022-10-14T16:08:53.541Z,8.63
2022-10-14T16:11:27.716Z,12.70
2022-10-14T16:13:57.037Z,8.90
2022-10-14T16:16:34.608Z,10.13
2022-10-14T16:19:03.697Z,8.90
2022-10-14T16:21:33.265Z,8.00
2022-10-14T16:24:04.327Z,10.20
2022-10-14T16:26:34.601Z,12.13
2022-10-14T16:29:03.869Z,8.17
2022-10-14T16:31:32.801Z,9.37
2022-10-14T16:34:01.998Z,12.30
2022-10-14T16:36:31.187Z,10.70
2022-10-14T16:39:01.837Z,10.10
2022-10-14T16:41:31.396Z,10.73
2022-10-14T16:44:01.558Z,10.40
2022-10-14T16:46:44.312Z,9.27
2022-10-14T16:49:14.337Z,17.67
2022-10-14T16:51:44.366Z,15.00
2022-10-14T16:54:13.742Z,14.70
2022-10-14T16:56:56.962Z,10.63
2022-10-14T16:59:28.512Z,13.57
2022-10-14T17:01:57.766Z,7.73
2022-10-14T17:04:27.233Z,12.10
2022-10-14T17:07:07.473Z,7.20
2022-10-14T17:09:39.071Z,14.93
2022-10-14T17:12:13.003Z,9.40
2022-10-14T17:14:44.512Z,10.63
2022-10-14T17:17:14.005Z,10.20
2022-10-14T17:19:44.721Z,12.70
2022-10-14T17:22:13.820Z,13.00
2022-10-14T17:24:42.597Z,14.70
2022-10-14T17:27:11.418Z,12.80
2022-10-14T17:29:40.358Z,18.63
2022-10-14T17:32:10.636Z,12.23
2022-10-14T17:34:39.437Z,13.50
2022-10-14T17:39:42.745Z,10.67
2022-10-14T17:42:11.471Z,10.67
2022-10-14T17:44:43.761Z,12.00
2022-10-14T17:47:14.327Z,14.77
2022-10-14T17:49:43.248Z,14.97
2022-10-14T17:52:12.365Z,14.30
2022-10-14T17:54:41.161Z,10.07
2022-10-14T17:57:10.009Z,11.23
2022-10-14T17:59:38.728Z,14.97
2022-10-14T18:02:09.755Z,13.97
2022-10-14T18:04:40.079Z,12.20
2022-10-14T18:07:08.809Z,16.57
2022-10-14T18:09:37.669Z,12.00
2022-10-14T18:12:09.157Z,13.57
2022-10-14T18:14:40.814Z,12.13
2022-10-14T18:17:12.489Z,12.93
2022-10-14T18:19:46.006Z,12.37
2022-10-14T18:22:17.281Z,13.43
2022-10-14T18:24:46.080Z,13.43
2022-10-14T18:27:14.839Z,12.83
2022-10-14T18:29:43.643Z,11.67
2022-10-14T18:32:12.468Z,12.73
2022-10-14T18:34:42.628Z,13.33
2022-10-14T18:37:11.881Z,13.70
2022-10-14T18:39:40.626Z,12.70
2022-10-14T18:42:09.450Z,16.30
2022-10-14T18:44:38.176Z,13.40
2022-10-14T18:47:07.598Z,10.60
2022-10-14T18:49:39.913Z,15.40
2022-10-14T18:52:11.369Z,15.87
2022-10-14T18:54:40.298Z,14.60
2022-10-14T18:57:10.182Z,18.53
2022-10-14T18:59:38.972Z,14.50
2022-10-14T19:02:10.080Z,14.77
2022-10-14T19:04:38.843Z,13.93
2022-10-14T19:07:08.561Z,13.40
2022-10-14T19:09:38.772Z,15.43
2022-10-14T19:12:22.107Z,13.50
2022-10-14T19:14:50.999Z,10.80
2022-10-14T19:17:19.729Z,12.93
2022-10-14T19:19:48.589Z,8.80
2022-10-14T19:22:17.357Z,11.87
2022-10-14T19:24:50.204Z,11.47
2022-10-14T19:27:19.078Z,11.30
2022-10-14T19:29:48.135Z,17.03
2022-10-14T19:32:17.015Z,12.63
2022-10-14T19:34:47.448Z,14.67
2022-10-14T19:37:16.501Z,13.57
2022-10-14T19:39:46.816Z,18.07
2022-10-14T19:42:15.626Z,12.10
2022-10-14T19:44:44.587Z,12.57
2022-10-14T19:47:13.422Z,12.43
2022-10-14T19:49:42.391Z,9.10
2022-10-14T19:52:11.266Z,9.70
2022-10-14T19:54:40.215Z,14.57
2022-10-14T19:57:10.469Z,9.87
2022-10-14T19:59:39.362Z,10.90
2022-10-14T20:02:08.236Z,12.80
2022-10-14T20:04:37.097Z,10.53
2022-10-14T20:07:05.934Z,8.60
2022-10-14T20:09:34.872Z,10.50
2022-10-14T20:12:04.323Z,10.57
2022-10-14T20:14:35.957Z,17.27
2022-10-14T20:17:05.103Z,9.80
2022-10-14T20:19:34.230Z,8.20
2022-10-14T20:22:03.119Z,11.73
2022-10-14T20:24:32.441Z,13.13
2022-10-14T20:27:01.820Z,9.83
2022-10-14T20:29:30.675Z,9.90
2022-10-14T20:32:02.234Z,9.77
2022-10-14T20:34:31.571Z,21.23
2022-10-14T20:37:00.443Z,11.17
2022-10-14T20:39:29.387Z,16.50
2022-10-14T20:41:59.715Z,11.80
2022-10-14T20:44:28.534Z,11.30
2022-10-14T20:46:58.621Z,12.63
2022-10-14T20:49:28.855Z,12.03
2022-10-14T20:51:58.163Z,12.70
2022-10-14T20:54:27.506Z,13.73
2022-10-14T20:56:56.942Z,15.70
2022-10-14T20:59:26.245Z,12.50
2022-10-14T21:01:55.423Z,15.20
2022-10-14T21:04:24.215Z,10.73
2022-10-14T21:06:55.116Z,12.13
2022-10-14T21:09:24.176Z,14.00
2022-10-14T21:14:23.095Z,17.60
2022-10-14T21:16:52.026Z,17.30
2022-10-14T21:19:22.096Z,15.67
2022-10-14T21:21:51.098Z,17.20
2022-10-14T21:24:22.425Z,14.30
2022-10-14T21:26:51.559Z,16.70
2022-10-14T21:29:21.751Z,14.40
2022-10-14T21:31:51.221Z,15.10
2022-10-14T21:34:20.201Z,16.67
2022-10-14T21:36:49.044Z,16.00
2022-10-14T21:39:20.320Z,16.40
2022-10-14T21:41:49.205Z,15.20
2022-10-14T21:44:21.330Z,17.70
2022-10-14T21:46:50.993Z,14.77
2022-10-14T21:49:19.905Z,18.97
2022-10-14T21:51:48.805Z,16.67
2022-10-14T21:54:17.945Z,21.50
2022-10-14T21:56:48.823Z,20.37
2022-10-14T21:59:19.689Z,19.13
2022-10-14T22:01:49.313Z,19.10
2022-10-14T22:04:18.573Z,21.53
2022-10-14T22:06:47.850Z,17.30
2022-10-14T22:09:16.990Z,19.60
2022-10-14T22:11:47.943Z,21.17
2022-10-14T22:14:31.205Z,18.37
2022-10-14T22:17:00.075Z,20.23
2022-10-14T22:19:28.894Z,27.40
2022-10-14T22:21:59.197Z,19.50
2022-10-14T22:24:28.202Z,28.53
2022-10-14T22:26:58.226Z,24.97
2022-10-14T22:29:27.619Z,21.63
2022-10-14T22:31:56.429Z,21.33
2022-10-14T22:34:25.234Z,18.57
2022-10-14T22:36:54.065Z,18.37
2022-10-14T22:39:24.893Z,23.80
2022-10-14T22:41:53.798Z,22.47
2022-10-14T22:44:24.298Z,23.33
2022-10-14T22:46:54.556Z,19.70
2022-10-14T22:49:23.467Z,22.77
2022-10-14T22:51:55.916Z,22.27
2022-10-14T22:54:25.934Z,22.97
2022-10-14T22:56:55.041Z,21.40
2022-10-14T22:59:25.296Z,21.07
2022-10-14T23:01:54.153Z,25.67
2022-10-14T23:04:22.903Z,20.27
2022-10-14T23:06:51.932Z,22.73
2022-10-14T23:09:20.722Z,22.40
2022-10-14T23:11:49.515Z,24.40
2022-10-14T23:14:18.543Z,18.87
2022-10-14T23:16:48.725Z,24.13
2022-10-14T23:19:17.504Z,23.90
2022-10-14T23:21:46.265Z,23.43
2022-10-14T23:24:15.170Z,23.00
2022-10-14T23:26:43.960Z,22.53
2022-10-14T23:29:13.445Z,19.47
2022-10-14T23:31:43.489Z,22.63
2022-10-14T23:34:15.625Z,19.97
2022-10-14T23:36:45.089Z,23.07
2022-10-14T23:39:14.380Z,20.73
2022-10-14T23:41:43.512Z,30.87
2022-10-14T23:44:13.180Z,19.37
2022-10-14T23:46:42.172Z,22.00
2022-10-14T23:49:25.412Z,23.07
2022-10-14T23:51:55.430Z,21.33
2022-10-14T23:54:25.041Z,24.87
2022-10-14T23:56:53.883Z,22.97
2022-10-14T23:59:22.777Z,21.23
